Florian Jäger

Scout - VfL Wolfsburg
4 Apr 2027
Sunday
Process

Personality

Adaptability (11) Ambition (5) Controversy (3) Loyalty (11) Pressure (10) Professionalism (12) Sportsmanship (2) Temperament (4)

Profile

Coaching Style Democratic
License National B
Determination 10
Man Management 11
Motivating 8
Discipline 7
Job Satisfaction
50%
Fatigue
0%
Role Scout
Wage 24.0K p/w
Contract 14.03.2028

Performance

Behaviour Normal
Training Effectiveness
17%
Player Development
75%
Injury Prevention
35%
Tactical Implementation
30%

Recent Events

Attended a recruitment meeting now
Attended a recruitment meeting now
Assessed a player now
Assessed a player now
Assessed a player 7d ago
Assessed a player 7d ago
Assessed a player 7d ago
Assessed a player 7d ago

Currently Monitoring

184
Player Club Status Ability Confidence Watched Last Observed Latest Vote
Luke Baartman Chippa United Active 101 / 95 40% 3 03.04.2027 -
Serge Daura Gazelle Garoua Active 93 / 100 40% 2 03.04.2027 -
Ayoub Oufkir AZ Active 135 / 137 40% 3 03.04.2027 -
Ben Ahmed Kohili Paradou Active 112 / 100 40% 3 02.04.2027 -
Tiago Pucciarelli FK Senica Active 99 / 113 40% 1 02.04.2027 -
Samy Merheg Alverca Active 113 / 110 40% 1 02.04.2027 -
Efraín Álvarez Guadalajara Active 121 / 132 40% 3 30.03.2027 -
Ognjen Bondžulić Mladost Lucani Active 95 / 112 40% 3 30.03.2027 -
Isi Palazón Rayo Vallecano Active 142 / 146 40% 2 30.03.2027 -
Luís Esteves Atlas Active 133 / 131 40% 2 30.03.2027 -
Jonás Luna Osasuna Active 109 / 116 40% 1 30.03.2027 -
Marcel Ruiz Toluca Active 154 / 139 40% 6 27.03.2027 -
Kauã Elias Shakhtar Active 130 / 131 40% 2 27.03.2027 -
Roger Brugué Levante Active 125 / 130 40% 2 27.03.2027 -
Adnan Courtois KV Oostende Active 117 / 132 40% 2 27.03.2027 -
Chiquinho Alverca Active 136 / 128 40% 1 27.03.2027 -
Markus Jensen Nacional Active 109 / 123 40% 1 27.03.2027 -
Orbelín Pineda Monterrey Active 139 / 127 40% 3 25.03.2027 -
Christian Kofane Bayer Leverkusen Active 138 / 148 40% 2 25.03.2027 -
Malcom Al Jazira Active 157 / 146 40% 1 25.03.2027 -
Majid Dejagah Gostaresh Foulad Active 126 / 146 40% 1 25.03.2027 -
Arkaitz Mariezkurrena Real Sociedad Active 121 / 128 40% 6 23.03.2027 -
Mert Kömür FC Augsburg Active 132 / 142 40% 1 23.03.2027 -
Sayed Abu Farchi Maccabi Tel Aviv Active 119 / 132 40% 1 23.03.2027 -
Marcelo Allende Mamelodi Sundowns Active 124 / 142 40% 2 22.03.2027 -
Zizo Al Ahly Active 137 / 138 40% 1 22.03.2027 -
Carlos Rodríguez Cruz Azul Active 130 / 132 40% 5 20.03.2027 -
Fashion Sakala Al-Fayha Active 141 / 130 40% 1 20.03.2027 -
Agustín Palavecino Cruz Azul Active 144 / 134 40% 3 19.03.2027 -
Maher Carrizo Ajax Active 121 / 119 40% 2 19.03.2027 -
Óliver Monterrey Active 136 / 131 40% 2 19.03.2027 -
Yannik Wagner Heidenheim Active 105 / 100 40% 1 19.03.2027 -
Matvii Ponomarenko Dynamo Kyiv Active 116 / 115 40% 4 16.03.2027 -
Leo Castledine Middlesbrough Active 125 / 135 40% 2 16.03.2027 -
Dominik Baumgartner Mattersburg Active 95 / 107 40% 2 15.03.2027 -
David Kalokoh Ajax Active 109 / 128 40% 1 15.03.2027 -
José Arnáiz Granada Active 132 / 117 40% 1 15.03.2027 -
Nemanja Radonjić Crvena Zvezda Active 139 / 120 40% 1 15.03.2027 -
Axel Openda KV Oostende Active 141 / 142 40% 2 13.03.2027 -
Oumar Camara Vitoria Guimaraes Active 120 / 121 40% 2 13.03.2027 -
Dom Ballard Leyton Orient Active 120 / 133 40% 1 13.03.2027 -
Iwan Morgan Grimsby Town Active 114 / 122 40% 1 09.03.2027 -
Fernando Valenzuela Queretaro Active 124 / 143 40% 1 08.03.2027 -
Percy Erasmus SuperSport United Active 138 / 134 40% 1 06.03.2027 -
Achraf Bencharki Al Ahly Active 132 / 123 40% 1 06.03.2027 -
Jesús Ricardo Angulo Toluca Active 143 / 148 40% 1 06.03.2027 -
Uchenna Ogundu FC Augsburg Active 124 / 134 40% 1 06.03.2027 -
Roberto Iliev Slavia Sofia Active 100 / 103 40% 1 06.03.2027 -
Jones El-Abdellaoui Celta Active 132 / 136 40% 4 03.03.2027 -
José Paradela Cruz Azul Active 134 / 144 40% 6 02.03.2027 -
Sebastián Córdova Pumas UNAM Active 147 / 140 40% 1 02.03.2027 -
Livan Burcu Union Berlin Lost 129 / 115 65% 1 25.01.2027 Approve
Matteo di Giusto Luzern Active 122 / 113 40% 2 05.01.2027 -
Milson Al Jazira Active 118 / 108 40% 2 05.01.2027 -
Felipe Augusto Zenit Active 136 / 129 40% 1 05.01.2027 -
Luciano Gondou CSKA Moscow Active 122 / 123 40% 2 03.01.2027 -
Michy Fellaini KV Oostende Active 133 / 138 40% 3 03.01.2027 -
Vinicinho Bragantino Active 132 / 138 40% 1 03.01.2027 -
Esequiel Barco Spartak Moscow Active 139 / 132 40% 4 31.12.2026 -
Kingsley Coman Al-Nassr Active 156 / 171 40% 1 31.12.2026 -
Alexis Vega Toluca Active 135 / 162 40% 4 30.12.2026 -
Grischa Prömel Heidenheim Active 143 / 145 40% 1 30.12.2026 -
Lukáš Provod Slavia Prague Active 139 / 131 40% 2 29.12.2026 -
Pedrinho Shakhtar Active 131 / 145 40% 1 29.12.2026 -
Nahuel Tenaglia Alavés Active 130 / 135 40% 1 29.12.2026 -
Bernardo Fontes Braga Active 128 / 136 40% 1 27.12.2026 -
Oleksandr Saputin Zorya Active 113 / 127 40% 1 27.12.2026 -
Josip Juranović Union Berlin Active 141 / 130 40% 2 26.12.2026 -
Jesus Sinisterra Sevilla Active 151 / 154 40% 4 25.12.2026 -
Matheus Pereira Cruzeiro Active 156 / 150 40% 3 25.12.2026 -
Theo Bongonda Al-Faisaly Active 123 / 142 40% 1 24.12.2026 -
Rocco Vata Watford Active 117 / 135 40% 4 22.12.2026 -
Furkan Dursun Thun Active 102 / 97 40% 8 22.12.2026 -
Ajay Matthews Millwall Active 95 / 115 40% 2 22.12.2026 -
Borna Knezović Casarano Active 101 / 113 40% 4 21.12.2026 -
Benjamin Henrichs RB Leipzig Active 144 / 136 40% 2 20.12.2026 -
Max Moerstedt TSG Hoffenheim Active 109 / 143 40% 2 19.12.2026 -
Eliezer Mayenda Stade Rennais Active 123 / 127 40% 2 16.12.2026 -
Luiz Júnior Villarreal Active 140 / 146 40% 3 15.12.2026 -
Yorbe Vertessen Red Bull Salzburg Active 124 / 137 40% 1 15.12.2026 -
Gonzalo Plata Dinamo Moscow Active 139 / 143 40% 1 15.12.2026 -
Alvyn Sanches Young Boys Active 127 / 134 40% 3 13.12.2026 -
Ilyes Housni AS Nancy Active 106 / 122 40% 2 13.12.2026 -
Ezequiel Bullaude Santos Laguna Active 124 / 110 40% 1 13.12.2026 -
Julian Weigl Al-Qadisiyah Active 144 / 160 40% 1 09.12.2026 -
André-Franck Zambo Anguissa Napoli Active 167 / 154 40% 1 09.12.2026 -
Bernardo TSG Hoffenheim Active 142 / 146 40% 1 07.12.2026 -
Héctor Bellerín Betis Active 141 / 148 40% 2 06.12.2026 -
Marvin Keller Young Boys Active 136 / 149 40% 6 04.12.2026 -
Guilherme Fernandes Córdoba Active 136 / 130 40% 3 04.12.2026 -
Félix Lemaréchal Club Brugge Active 137 / 142 40% 2 04.12.2026 -
Mattia Zanotti Lugano Active 134 / 124 40% 1 04.12.2026 -
Bilal Bayazıt Kayserispor Active 137 / 125 40% 1 04.12.2026 -
Justin Hammel Grasshopper Active 118 / 127 40% 3 03.12.2026 -
Robin Risser RC Lens Active 142 / 147 40% 1 03.12.2026 -
Lucas Lund Viborg Active 109 / 100 40% 1 03.12.2026 -
Adriano Bertaccini Anderlecht Active 129 / 132 40% 1 02.12.2026 -
Pablo Solari Spartak Moscow Active 138 / 127 40% 1 02.12.2026 -
Haissem Hassan Bloemfontein Celtic Active 125 / 129 40% 3 01.12.2026 -
Gorka Guruzeta Athletic Bilbao Active 148 / 148 40% 1 01.12.2026 -
Metinho Basel Active 138 / 120 40% 1 01.12.2026 -
Adrià Altimira Deportivo La Coruña Active 132 / 120 40% 1 01.12.2026 -
David Fernández O'Higgins Active 103 / 106 40% 3 26.11.2026 -
Dženan Pejčinović VfB Stuttgart Active 115 / 141 40% 1 26.11.2026 -
Tristan Degreef Anderlecht Active 126 / 135 40% 2 24.11.2026 -
Urko Izeta Cádiz Active 130 / 139 40% 1 24.11.2026 -
Isaac Schmidt Young Boys Active 127 / 117 40% 1 24.11.2026 -
Donnell McNeilly Nottingham Forest Active 115 / 114 40% 2 21.11.2026 -
Conrad Harder RB Leipzig Active 134 / 152 40% 2 20.11.2026 -
Matthieu Epolo Standard Liege Active 122 / 132 40% 2 19.11.2026 -
Lazar Carević Famalicao Active 125 / 134 40% 1 19.11.2026 -
Anton Kade FC Augsburg Active 122 / 124 40% 1 17.11.2026 -
Robert Skov Union Berlin Active 130 / 146 40% 1 15.11.2026 -
Gorka Carrera Real Sociedad Active 119 / 110 40% 3 14.11.2026 -
Sandro Las Palmas Active 133 / 146 40% 2 12.11.2026 -
Kenny Tete Fulham Active 144 / 155 40% 1 11.11.2026 -
Alexander Lyng SonderjyskE Active 112 / 127 40% 5 08.11.2026 -
Iván Martín Racing Club Active 153 / 139 40% 1 07.11.2026 -
Luciano Jachfe Nueva Chicago Active 111 / 130 40% 3 06.11.2026 -
Ryan Gauld Vancouver Whitecaps Active 137 / 137 40% 1 06.11.2026 -
Niklas Steffen Thun Active 116 / 119 40% 1 06.11.2026 -
Mio Backhaus SC Freiburg Active 127 / 142 40% 4 05.11.2026 -
Carl Rushworth Coventry City Active 141 / 137 40% 2 05.11.2026 -
Elia Caprile Cagliari Active 142 / 143 40% 1 05.11.2026 -
Brais Méndez Columbus Crew Active 160 / 139 40% 1 03.11.2026 -
Jaminton Campaz Rosario Central Active 140 / 127 40% 1 02.11.2026 -
Sorriso Famalicao Active 132 / 119 40% 1 02.11.2026 -
Ritsu Doan Gamba Osaka Active 141 / 140 40% 1 02.11.2026 -
Michael Cooper Sheffield United Active 120 / 121 40% 2 29.10.2026 -
Gonzalo Crettaz NEC Active 134 / 140 40% 1 29.10.2026 -
Karl Hein Werder Bremen Active 139 / 149 40% 3 27.10.2026 Monitor
Fabiano Rust Feyenoord Active 102 / 123 40% 1 27.10.2026 -
Christian Früchtl Red Bull Salzburg Active 113 / 126 40% 4 24.10.2026 -
Archie Goodwin Charlotte Football Club Active 94 / 116 40% 1 24.10.2026 -
Kostantis Tzolakis Hull City Active 139 / 144 40% 1 22.10.2026 -
César Ibáñez Huracán Active 133 / 138 40% 1 22.10.2026 -
Alan Lescano Argentinos Juniors Active 116 / 139 40% 1 22.10.2026 -
Matko Miljevic Racing Club Active 125 / 121 40% 1 22.10.2026 -
Iñaki Peña Panathinaikos Active 137 / 143 40% 1 19.10.2026 -
Jamie Cumming Oxford United Active 118 / 110 40% 1 19.10.2026 -
Nicolás Fernández Mercau New York City Active 137 / 128 40% 1 17.10.2026 -
Exequiel Zeballos Boca Juniors Active 140 / 132 40% 1 16.10.2026 -
Fidel Ambríz Monterrey Active 128 / 122 40% 1 16.10.2026 -
Abubakr Barry Red Bull Salzburg Active 127 / 126 40% 1 14.10.2026 -
Facundo Mura Inter Miami CF Active 119 / 109 40% 1 14.10.2026 -
Nikolay Zlatev Cherno More Active 105 / 99 40% 1 13.10.2026 -
Diego Conde Villarreal Active 138 / 149 40% 2 11.10.2026 -
Anthony Racioppi Sion Active 122 / 112 40% 1 09.10.2026 -
Mauro Silveira Junior Active 105 / 118 40% 3 07.10.2026 -
Anthony Patterson Wrexham Active 132 / 118 40% 1 07.10.2026 -
Arijanet Murić Sassuolo Active 140 / 146 40% 1 07.10.2026 -
Pascal Loretz Luzern Active 128 / 124 40% 2 05.10.2026 -
Grégoire Coudert Burnley Active 119 / 126 40% 2 04.10.2026 -
Radek Vítek Middlesbrough Active 125 / 147 40% 1 04.10.2026 -
Nicolás Sumavil Platense Active 111 / 111 40% 1 04.10.2026 -
Axel Alderweireld KV Oostende Active 137 / 129 40% 3 29.09.2026 -
Alex Luna Instituto Active 119 / 116 40% 1 29.09.2026 -
James Trafford Leeds United Active 137 / 139 40% 2 27.09.2026 -
Patrick Schulte Columbus Crew Active 108 / 112 40% 1 27.09.2026 -
Marquinhos Spartak Moscow Active 123 / 124 40% 1 27.09.2026 -
Alan Velasco Boca Juniors Active 127 / 149 40% 1 27.09.2026 -
Tomás Chancalay Minnesota United FC Active 136 / 107 40% 1 27.09.2026 -
Diego Lainez Tigres Active 116 / 142 40% 2 26.09.2026 -
Riqui Puig LA Galaxy Active 145 / 120 40% 1 26.09.2026 -
Brian Rodríguez Club America Active 115 / 120 40% 1 26.09.2026 -
Ilyas Ansah Union Berlin Active 130 / 126 40% 1 23.09.2026 -
Philip Otele Basel Active 127 / 137 40% 1 21.09.2026 -
Maurits Kjærgaard Red Bull Salzburg Active 125 / 128 40% 1 21.09.2026 -
Gabriel Brazão Santos Active 145 / 121 40% 1 19.09.2026 -
Thalys Almería Active 109 / 134 40% 2 17.09.2026 -
Vitor Roque Palmeiras Active 128 / 133 40% 3 15.09.2026 -
Will Lankshear Middlesbrough Active 128 / 130 40% 2 15.09.2026 -
Felipe Zenobio Tigre Active 136 / 128 40% 2 15.09.2026 -
Hugo Souza Corinthians Active 138 / 153 40% 1 15.09.2026 -
Enzo Vázquez Central Norte Active 100 / 127 40% 1 15.09.2026 -
Erik Lira Cruz Azul Active 136 / 138 40% 1 14.09.2026 -
Leandro Lozano Boca Juniors Active 139 / 105 40% 1 14.09.2026 -
John Pulskamp Sporting Kansas City Active 115 / 133 40% 1 08.09.2026 -
Ezekiel Kwame Alladoh Philadelphia Union Active 115 / 139 40% 1 04.09.2026 -
Julián Vignolo Toulouse FC Active 102 / 122 40% 1 30.08.2026 -
Rayan Fofana RC Lens Active 124 / 131 40% 1 26.08.2026 -
Jacob Peter Hödl Austria Wien Active 117 / 130 40% 1 17.08.2026 -
Taiwo Awoniyi Coventry City Active 136 / 128 40% 1 01.08.2026 -
Igor Jesus Nottingham Forest Active 140 / 126 40% 1 01.08.2026 -